sensor_id;sensor_type;location;lat;lon;timestamp;P1;durP1;ratioP1;P2;durP2;ratioP2
31004;SDS011;17676;52.254;4.490;2023-02-10T00:00:09;12.50;;;0.63;;
31004;SDS011;17676;52.254;4.490;2023-02-10T00:02:35;12.63;;;0.97;;
31004;SDS011;17676;52.254;4.490;2023-02-10T00:05:00;9.63;;;0.73;;
31004;SDS011;17676;52.254;4.490;2023-02-10T00:07:25;15.43;;;1.17;;
31004;SDS011;17676;52.254;4.490;2023-02-10T00:09:51;9.97;;;0.83;;
31004;SDS011;17676;52.254;4.490;2023-02-10T00:12:16;13.10;;;0.77;;
31004;SDS011;17676;52.254;4.490;2023-02-10T00:14:41;19.93;;;1.07;;
31004;SDS011;17676;52.254;4.490;2023-02-10T00:17:07;15.13;;;0.70;;
31004;SDS011;17676;52.254;4.490;2023-02-10T00:19:32;13.67;;;1.13;;
31004;SDS011;17676;52.254;4.490;2023-02-10T00:22:00;9.93;;;1.17;;
31004;SDS011;17676;52.254;4.490;2023-02-10T00:24:25;12.33;;;1.33;;
31004;SDS011;17676;52.254;4.490;2023-02-10T00:26:51;9.57;;;1.00;;
31004;SDS011;17676;52.254;4.490;2023-02-10T00:29:16;12.70;;;1.17;;
31004;SDS011;17676;52.254;4.490;2023-02-10T00:31:42;15.10;;;1.20;;
31004;SDS011;17676;52.254;4.490;2023-02-10T00:34:11;13.57;;;2.00;;
31004;SDS011;17676;52.254;4.490;2023-02-10T00:36:36;12.57;;;1.20;;
31004;SDS011;17676;52.254;4.490;2023-02-10T00:39:01;13.67;;;1.90;;
31004;SDS011;17676;52.254;4.490;2023-02-10T00:41:27;19.67;;;1.50;;
31004;SDS011;17676;52.254;4.490;2023-02-10T00:43:52;12.77;;;1.63;;
31004;SDS011;17676;52.254;4.490;2023-02-10T00:46:18;11.60;;;1.27;;
31004;SDS011;17676;52.254;4.490;2023-02-10T00:48:44;11.43;;;2.27;;
31004;SDS011;17676;52.254;4.490;2023-02-10T00:51:09;11.50;;;1.57;;
31004;SDS011;17676;52.254;4.490;2023-02-10T00:53:35;9.20;;;1.40;;
31004;SDS011;17676;52.254;4.490;2023-02-10T00:56:00;12.13;;;1.30;;
31004;SDS011;17676;52.254;4.490;2023-02-10T00:58:25;9.37;;;1.50;;
31004;SDS011;17676;52.254;4.490;2023-02-10T01:00:54;9.93;;;1.50;;
31004;SDS011;17676;52.254;4.490;2023-02-10T01:03:19;12.83;;;1.93;;
31004;SDS011;17676;52.254;4.490;2023-02-10T01:05:45;10.30;;;1.77;;
31004;SDS011;17676;52.254;4.490;2023-02-10T01:08:11;9.97;;;1.93;;
31004;SDS011;17676;52.254;4.490;2023-02-10T01:10:37;15.77;;;1.73;;
31004;SDS011;17676;52.254;4.490;2023-02-10T01:13:03;12.17;;;1.87;;
31004;SDS011;17676;52.254;4.490;2023-02-10T01:15:29;11.10;;;2.07;;
31004;SDS011;17676;52.254;4.490;2023-02-10T01:17:54;15.33;;;2.83;;
31004;SDS011;17676;52.254;4.490;2023-02-10T01:20:20;21.50;;;3.00;;
31004;SDS011;17676;52.254;4.490;2023-02-10T01:22:45;14.23;;;2.80;;
31004;SDS011;17676;52.254;4.490;2023-02-10T01:25:11;19.10;;;2.40;;
31004;SDS011;17676;52.254;4.490;2023-02-10T01:27:36;18.20;;;2.73;;
31004;SDS011;17676;52.254;4.490;2023-02-10T01:30:02;7.37;;;1.73;;
31004;SDS011;17676;52.254;4.490;2023-02-10T01:32:27;15.47;;;2.37;;
31004;SDS011;17676;52.254;4.490;2023-02-10T01:34:53;10.87;;;1.83;;
31004;SDS011;17676;52.254;4.490;2023-02-10T01:37:21;13.77;;;2.63;;
31004;SDS011;17676;52.254;4.490;2023-02-10T01:39:46;11.53;;;2.07;;
31004;SDS011;17676;52.254;4.490;2023-02-10T01:42:12;8.77;;;1.97;;
31004;SDS011;17676;52.254;4.490;2023-02-10T01:47:07;17.97;;;2.23;;
31004;SDS011;17676;52.254;4.490;2023-02-10T01:49:34;8.03;;;1.47;;
31004;SDS011;17676;52.254;4.490;2023-02-10T01:52:02;15.10;;;1.57;;
31004;SDS011;17676;52.254;4.490;2023-02-10T01:54:41;7.77;;;1.20;;
31004;SDS011;17676;52.254;4.490;2023-02-10T01:57:08;9.57;;;1.70;;
31004;SDS011;17676;52.254;4.490;2023-02-10T01:59:34;12.83;;;1.90;;
31004;SDS011;17676;52.254;4.490;2023-02-10T02:02:01;11.17;;;1.50;;
31004;SDS011;17676;52.254;4.490;2023-02-10T02:04:42;14.30;;;2.37;;
31004;SDS011;17676;52.254;4.490;2023-02-10T02:07:10;14.43;;;2.27;;
31004;SDS011;17676;52.254;4.490;2023-02-10T02:09:35;10.33;;;2.00;;
31004;SDS011;17676;52.254;4.490;2023-02-10T02:12:22;14.63;;;2.27;;
31004;SDS011;17676;52.254;4.490;2023-02-10T02:15:01;17.93;;;3.13;;
31004;SDS011;17676;52.254;4.490;2023-02-10T02:20:30;8.83;;;1.67;;
31004;SDS011;17676;52.254;4.490;2023-02-10T02:25:45;15.90;;;1.90;;
31004;SDS011;17676;52.254;4.490;2023-02-10T02:36:07;18.03;;;3.27;;
31004;SDS011;17676;52.254;4.490;2023-02-10T02:38:39;12.87;;;3.17;;
31004;SDS011;17676;52.254;4.490;2023-02-10T02:41:05;11.70;;;2.47;;
31004;SDS011;17676;52.254;4.490;2023-02-10T02:43:30;13.87;;;2.97;;
31004;SDS011;17676;52.254;4.490;2023-02-10T02:46:07;14.93;;;2.90;;
31004;SDS011;17676;52.254;4.490;2023-02-10T02:56:09;10.83;;;2.73;;
31004;SDS011;17676;52.254;4.490;2023-02-10T02:58:56;16.17;;;2.80;;
31004;SDS011;17676;52.254;4.490;2023-02-10T03:01:32;12.40;;;2.33;;
31004;SDS011;17676;52.254;4.490;2023-02-10T03:03:59;12.20;;;2.60;;
31004;SDS011;17676;52.254;4.490;2023-02-10T03:06:26;16.33;;;3.27;;
31004;SDS011;17676;52.254;4.490;2023-02-10T03:08:51;24.67;;;2.77;;
31004;SDS011;17676;52.254;4.490;2023-02-10T03:11:18;13.23;;;3.10;;
31004;SDS011;17676;52.254;4.490;2023-02-10T03:13:43;10.93;;;2.50;;
31004;SDS011;17676;52.254;4.490;2023-02-10T03:16:09;10.17;;;2.47;;
31004;SDS011;17676;52.254;4.490;2023-02-10T03:18:34;14.30;;;3.53;;
31004;SDS011;17676;52.254;4.490;2023-02-10T03:20:59;16.63;;;3.13;;
31004;SDS011;17676;52.254;4.490;2023-02-10T03:23:25;13.87;;;2.73;;
31004;SDS011;17676;52.254;4.490;2023-02-10T03:25:50;12.53;;;3.90;;
31004;SDS011;17676;52.254;4.490;2023-02-10T03:28:15;22.27;;;3.20;;
31004;SDS011;17676;52.254;4.490;2023-02-10T03:30:40;14.30;;;3.13;;
31004;SDS011;17676;52.254;4.490;2023-02-10T03:33:13;14.63;;;3.50;;
31004;SDS011;17676;52.254;4.490;2023-02-10T03:35:38;10.83;;;2.73;;
31004;SDS011;17676;52.254;4.490;2023-02-10T03:38:05;14.27;;;3.13;;
31004;SDS011;17676;52.254;4.490;2023-02-10T03:40:30;18.53;;;2.70;;
31004;SDS011;17676;52.254;4.490;2023-02-10T03:42:56;12.33;;;2.77;;
31004;SDS011;17676;52.254;4.490;2023-02-10T03:45:21;14.73;;;2.93;;
31004;SDS011;17676;52.254;4.490;2023-02-10T03:47:46;17.77;;;3.13;;
31004;SDS011;17676;52.254;4.490;2023-02-10T03:50:11;19.63;;;3.27;;
31004;SDS011;17676;52.254;4.490;2023-02-10T03:52:37;13.60;;;2.83;;
31004;SDS011;17676;52.254;4.490;2023-02-10T03:55:02;15.10;;;3.33;;
31004;SDS011;17676;52.254;4.490;2023-02-10T03:57:27;15.63;;;2.70;;
31004;SDS011;17676;52.254;4.490;2023-02-10T03:59:53;16.40;;;3.00;;
31004;SDS011;17676;52.254;4.490;2023-02-10T04:02:18;13.83;;;3.00;;
31004;SDS011;17676;52.254;4.490;2023-02-10T04:04:44;15.30;;;3.43;;
31004;SDS011;17676;52.254;4.490;2023-02-10T04:07:09;12.67;;;3.30;;
31004;SDS011;17676;52.254;4.490;2023-02-10T04:09:34;12.07;;;2.33;;
31004;SDS011;17676;52.254;4.490;2023-02-10T04:11:59;15.07;;;3.07;;
31004;SDS011;17676;52.254;4.490;2023-02-10T04:14:25;11.77;;;2.93;;
31004;SDS011;17676;52.254;4.490;2023-02-10T04:16:50;18.00;;;3.40;;
31004;SDS011;17676;52.254;4.490;2023-02-10T04:28:24;15.60;;;4.00;;
31004;SDS011;17676;52.254;4.490;2023-02-10T04:30:56;14.10;;;3.87;;
31004;SDS011;17676;52.254;4.490;2023-02-10T04:33:22;24.17;;;3.77;;
31004;SDS011;17676;52.254;4.490;2023-02-10T04:35:49;14.33;;;3.87;;
31004;SDS011;17676;52.254;4.490;2023-02-10T04:38:15;21.53;;;5.30;;
31004;SDS011;17676;52.254;4.490;2023-02-10T04:40:41;22.40;;;5.10;;
31004;SDS011;17676;52.254;4.490;2023-02-10T04:43:07;11.63;;;3.07;;
31004;SDS011;17676;52.254;4.490;2023-02-10T04:45:32;16.63;;;4.00;;
31004;SDS011;17676;52.254;4.490;2023-02-10T04:47:57;18.77;;;4.63;;
31004;SDS011;17676;52.254;4.490;2023-02-10T04:50:22;16.67;;;4.13;;
31004;SDS011;17676;52.254;4.490;2023-02-10T04:52:47;20.30;;;4.63;;
31004;SDS011;17676;52.254;4.490;2023-02-10T04:55:13;19.03;;;5.03;;
31004;SDS011;17676;52.254;4.490;2023-02-10T04:57:38;13.60;;;3.83;;
31004;SDS011;17676;52.254;4.490;2023-02-10T05:00:03;21.13;;;4.53;;
31004;SDS011;17676;52.254;4.490;2023-02-10T05:02:29;18.40;;;4.20;;
31004;SDS011;17676;52.254;4.490;2023-02-10T05:04:54;24.93;;;4.60;;
31004;SDS011;17676;52.254;4.490;2023-02-10T05:07:20;23.30;;;5.23;;
31004;SDS011;17676;52.254;4.490;2023-02-10T05:09:45;22.33;;;5.57;;
31004;SDS011;17676;52.254;4.490;2023-02-10T05:12:10;37.90;;;6.50;;
31004;SDS011;17676;52.254;4.490;2023-02-10T05:14:35;15.50;;;5.67;;
31004;SDS011;17676;52.254;4.490;2023-02-10T05:17:01;18.97;;;4.57;;
31004;SDS011;17676;52.254;4.490;2023-02-10T05:19:42;20.80;;;5.70;;
31004;SDS011;17676;52.254;4.490;2023-02-10T05:22:35;16.37;;;4.90;;
31004;SDS011;17676;52.254;4.490;2023-02-10T05:25:00;16.47;;;5.37;;
31004;SDS011;17676;52.254;4.490;2023-02-10T05:27:26;20.23;;;5.77;;
31004;SDS011;17676;52.254;4.490;2023-02-10T05:29:51;22.27;;;5.60;;
31004;SDS011;17676;52.254;4.490;2023-02-10T05:32:16;25.03;;;6.13;;
31004;SDS011;17676;52.254;4.490;2023-02-10T05:34:41;21.20;;;6.03;;
31004;SDS011;17676;52.254;4.490;2023-02-10T05:37:07;21.27;;;7.10;;
31004;SDS011;17676;52.254;4.490;2023-02-10T05:39:32;25.20;;;6.53;;
31004;SDS011;17676;52.254;4.490;2023-02-10T05:41:57;22.90;;;7.00;;
31004;SDS011;17676;52.254;4.490;2023-02-10T05:44:23;17.57;;;6.67;;
31004;SDS011;17676;52.254;4.490;2023-02-10T05:46:49;20.57;;;8.57;;
31004;SDS011;17676;52.254;4.490;2023-02-10T05:49:14;25.83;;;7.00;;
31004;SDS011;17676;52.254;4.490;2023-02-10T05:51:40;19.33;;;7.53;;
31004;SDS011;17676;52.254;4.490;2023-02-10T05:54:05;27.97;;;8.87;;
31004;SDS011;17676;52.254;4.490;2023-02-10T05:56:30;24.77;;;7.80;;
31004;SDS011;17676;52.254;4.490;2023-02-10T05:58:56;21.97;;;6.43;;
31004;SDS011;17676;52.254;4.490;2023-02-10T06:01:21;22.97;;;7.93;;
31004;SDS011;17676;52.254;4.490;2023-02-10T06:03:46;24.70;;;7.47;;
31004;SDS011;17676;52.254;4.490;2023-02-10T06:06:11;19.90;;;6.97;;
31004;SDS011;17676;52.254;4.490;2023-02-10T06:08:37;30.83;;;8.53;;
31004;SDS011;17676;52.254;4.490;2023-02-10T06:11:02;18.33;;;7.40;;
31004;SDS011;17676;52.254;4.490;2023-02-10T06:13:27;23.43;;;8.83;;
31004;SDS011;17676;52.254;4.490;2023-02-10T06:15:52;27.83;;;8.63;;
31004;SDS011;17676;52.254;4.490;2023-02-10T06:18:18;27.93;;;10.07;;
31004;SDS011;17676;52.254;4.490;2023-02-10T06:20:47;29.33;;;10.43;;
31004;SDS011;17676;52.254;4.490;2023-02-10T06:23:12;31.87;;;9.30;;
31004;SDS011;17676;52.254;4.490;2023-02-10T06:25:37;24.10;;;9.70;;
31004;SDS011;17676;52.254;4.490;2023-02-10T06:28:03;22.77;;;9.63;;
31004;SDS011;17676;52.254;4.490;2023-02-10T06:30:28;30.50;;;11.40;;
31004;SDS011;17676;52.254;4.490;2023-02-10T06:32:53;31.33;;;10.43;;
31004;SDS011;17676;52.254;4.490;2023-02-10T06:35:19;33.50;;;10.37;;
31004;SDS011;17676;52.254;4.490;2023-02-10T06:37:44;29.50;;;10.43;;
31004;SDS011;17676;52.254;4.490;2023-02-10T06:40:09;33.80;;;11.20;;
31004;SDS011;17676;52.254;4.490;2023-02-10T06:42:35;30.13;;;10.53;;
31004;SDS011;17676;52.254;4.490;2023-02-10T06:45:00;30.30;;;10.23;;
31004;SDS011;17676;52.254;4.490;2023-02-10T06:47:25;29.83;;;10.57;;
31004;SDS011;17676;52.254;4.490;2023-02-10T06:49:50;32.37;;;10.00;;
31004;SDS011;17676;52.254;4.490;2023-02-10T06:52:16;28.20;;;11.10;;
31004;SDS011;17676;52.254;4.490;2023-02-10T06:54:41;35.03;;;12.00;;
31004;SDS011;17676;52.254;4.490;2023-02-10T06:57:06;31.23;;;12.73;;
31004;SDS011;17676;52.254;4.490;2023-02-10T06:59:32;24.90;;;11.40;;
31004;SDS011;17676;52.254;4.490;2023-02-10T07:01:58;34.93;;;12.13;;
31004;SDS011;17676;52.254;4.490;2023-02-10T07:04:26;36.47;;;12.83;;
31004;SDS011;17676;52.254;4.490;2023-02-10T07:06:51;35.73;;;13.97;;
31004;SDS011;17676;52.254;4.490;2023-02-10T07:09:17;34.57;;;14.80;;
31004;SDS011;17676;52.254;4.490;2023-02-10T07:11:42;37.97;;;13.60;;
31004;SDS011;17676;52.254;4.490;2023-02-10T07:14:07;39.67;;;16.37;;
31004;SDS011;17676;52.254;4.490;2023-02-10T07:16:32;38.40;;;15.10;;
31004;SDS011;17676;52.254;4.490;2023-02-10T07:18:59;36.30;;;15.67;;
31004;SDS011;17676;52.254;4.490;2023-02-10T07:21:24;43.70;;;16.43;;
31004;SDS011;17676;52.254;4.490;2023-02-10T07:23:49;43.60;;;16.07;;
31004;SDS011;17676;52.254;4.490;2023-02-10T07:26:17;35.87;;;15.77;;
31004;SDS011;17676;52.254;4.490;2023-02-10T07:28:43;41.80;;;17.07;;
31004;SDS011;17676;52.254;4.490;2023-02-10T07:31:08;38.23;;;16.17;;
31004;SDS011;17676;52.254;4.490;2023-02-10T07:33:33;36.37;;;16.17;;
31004;SDS011;17676;52.254;4.490;2023-02-10T07:35:59;40.37;;;16.13;;
31004;SDS011;17676;52.254;4.490;2023-02-10T07:38:25;41.80;;;16.57;;
31004;SDS011;17676;52.254;4.490;2023-02-10T07:40:51;39.30;;;16.20;;
31004;SDS011;17676;52.254;4.490;2023-02-10T07:43:16;46.50;;;19.93;;
31004;SDS011;17676;52.254;4.490;2023-02-10T07:45:41;41.20;;;17.83;;
31004;SDS011;17676;52.254;4.490;2023-02-10T07:48:06;39.03;;;16.20;;
31004;SDS011;17676;52.254;4.490;2023-02-10T07:50:32;39.83;;;16.17;;
31004;SDS011;17676;52.254;4.490;2023-02-10T07:52:57;42.90;;;17.70;;
31004;SDS011;17676;52.254;4.490;2023-02-10T07:55:22;39.53;;;17.33;;
31004;SDS011;17676;52.254;4.490;2023-02-10T07:57:47;41.47;;;18.00;;
31004;SDS011;17676;52.254;4.490;2023-02-10T08:00:13;41.37;;;19.13;;
31004;SDS011;17676;52.254;4.490;2023-02-10T08:02:39;40.70;;;18.53;;
31004;SDS011;17676;52.254;4.490;2023-02-10T08:05:05;39.30;;;21.60;;
31004;SDS011;17676;52.254;4.490;2023-02-10T08:07:31;50.07;;;21.17;;
31004;SDS011;17676;52.254;4.490;2023-02-10T08:09:56;43.47;;;20.07;;
31004;SDS011;17676;52.254;4.490;2023-02-10T08:12:21;38.33;;;18.90;;
31004;SDS011;17676;52.254;4.490;2023-02-10T08:14:47;45.67;;;21.13;;
31004;SDS011;17676;52.254;4.490;2023-02-10T08:17:12;40.53;;;18.33;;
31004;SDS011;17676;52.254;4.490;2023-02-10T08:19:37;39.83;;;18.70;;
31004;SDS011;17676;52.254;4.490;2023-02-10T08:22:05;40.87;;;18.97;;
31004;SDS011;17676;52.254;4.490;2023-02-10T08:24:31;35.83;;;17.30;;
31004;SDS011;17676;52.254;4.490;2023-02-10T08:26:56;39.40;;;17.50;;
31004;SDS011;17676;52.254;4.490;2023-02-10T08:29:21;34.43;;;17.47;;
31004;SDS011;17676;52.254;4.490;2023-02-10T08:31:50;42.47;;;18.60;;
31004;SDS011;17676;52.254;4.490;2023-02-10T08:34:16;38.27;;;17.53;;
31004;SDS011;17676;52.254;4.490;2023-02-10T08:36:42;32.87;;;16.97;;
31004;SDS011;17676;52.254;4.490;2023-02-10T08:39:07;27.93;;;16.13;;
31004;SDS011;17676;52.254;4.490;2023-02-10T08:41:33;43.37;;;16.17;;
31004;SDS011;17676;52.254;4.490;2023-02-10T08:43:58;29.52;;;15.55;;
31004;SDS011;17676;52.254;4.490;2023-02-10T08:46:23;25.35;;;12.82;;
31004;SDS011;17676;52.254;4.490;2023-02-10T08:48:49;25.80;;;11.98;;
31004;SDS011;17676;52.254;4.490;2023-02-10T08:51:14;22.40;;;11.05;;
31004;SDS011;17676;52.254;4.490;2023-02-10T08:53:40;16.15;;;10.63;;
31004;SDS011;17676;52.254;4.490;2023-02-10T08:56:06;17.13;;;9.30;;
31004;SDS011;17676;52.254;4.490;2023-02-10T08:58:32;17.15;;;9.50;;
31004;SDS011;17676;52.254;4.490;2023-02-10T09:00:57;14.10;;;8.98;;
31004;SDS011;17676;52.254;4.490;2023-02-10T09:03:23;12.93;;;8.45;;
31004;SDS011;17676;52.254;4.490;2023-02-10T09:05:48;16.45;;;8.30;;
31004;SDS011;17676;52.254;4.490;2023-02-10T09:08:14;14.18;;;8.27;;
31004;SDS011;17676;52.254;4.490;2023-02-10T09:10:40;12.57;;;8.05;;
31004;SDS011;17676;52.254;4.490;2023-02-10T09:13:06;12.70;;;7.65;;
31004;SDS011;17676;52.254;4.490;2023-02-10T09:15:35;13.43;;;7.90;;
31004;SDS011;17676;52.254;4.490;2023-02-10T09:18:01;14.23;;;7.80;;
31004;SDS011;17676;52.254;4.490;2023-02-10T09:20:26;13.95;;;7.50;;
31004;SDS011;17676;52.254;4.490;2023-02-10T09:22:52;13.80;;;7.95;;
31004;SDS011;17676;52.254;4.490;2023-02-10T09:25:17;16.95;;;8.35;;
31004;SDS011;17676;52.254;4.490;2023-02-10T09:27:42;14.27;;;7.72;;
31004;SDS011;17676;52.254;4.490;2023-02-10T09:30:07;13.27;;;7.68;;
31004;SDS011;17676;52.254;4.490;2023-02-10T09:32:33;15.57;;;7.93;;
31004;SDS011;17676;52.254;4.490;2023-02-10T09:34:58;17.95;;;8.18;;
31004;SDS011;17676;52.254;4.490;2023-02-10T09:37:23;17.00;;;9.18;;
31004;SDS011;17676;52.254;4.490;2023-02-10T09:39:49;19.50;;;8.65;;
31004;SDS011;17676;52.254;4.490;2023-02-10T09:42:26;14.60;;;8.77;;
31004;SDS011;17676;52.254;4.490;2023-02-10T09:45:11;15.63;;;8.32;;
31004;SDS011;17676;52.254;4.490;2023-02-10T09:47:41;20.85;;;8.85;;
31004;SDS011;17676;52.254;4.490;2023-02-10T09:55:12;12.70;;;8.20;;
31004;SDS011;17676;52.254;4.490;2023-02-10T09:57:39;13.70;;;8.13;;
31004;SDS011;17676;52.254;4.490;2023-02-10T10:00:13;14.88;;;7.95;;
31004;SDS011;17676;52.254;4.490;2023-02-10T10:02:45;15.43;;;7.82;;
31004;SDS011;17676;52.254;4.490;2023-02-10T10:05:15;14.57;;;7.55;;
31004;SDS011;17676;52.254;4.490;2023-02-10T10:07:42;14.02;;;6.68;;
31004;SDS011;17676;52.254;4.490;2023-02-10T10:12:38;22.77;;;8.25;;
31004;SDS011;17676;52.254;4.490;2023-02-10T10:15:04;15.93;;;8.18;;
31004;SDS011;17676;52.254;4.490;2023-02-10T10:17:36;15.15;;;8.38;;
31004;SDS011;17676;52.254;4.490;2023-02-10T10:22:52;17.25;;;7.95;;
31004;SDS011;17676;52.254;4.490;2023-02-10T10:31:27;9.75;;;4.15;;
31004;SDS011;17676;52.254;4.490;2023-02-10T10:36:22;13.65;;;5.63;;
31004;SDS011;17676;52.254;4.490;2023-02-10T10:38:52;17.23;;;5.28;;
31004;SDS011;17676;52.254;4.490;2023-02-10T10:41:18;16.98;;;5.32;;
31004;SDS011;17676;52.254;4.490;2023-02-10T10:43:48;12.02;;;4.50;;
31004;SDS011;17676;52.254;4.490;2023-02-10T10:46:18;11.02;;;5.05;;
31004;SDS011;17676;52.254;4.490;2023-02-10T10:48:45;15.50;;;5.53;;
31004;SDS011;17676;52.254;4.490;2023-02-10T10:51:11;10.63;;;3.08;;
31004;SDS011;17676;52.254;4.490;2023-02-10T10:53:41;10.35;;;2.33;;
31004;SDS011;17676;52.254;4.490;2023-02-10T10:58:39;15.30;;;2.15;;
31004;SDS011;17676;52.254;4.490;2023-02-10T11:01:07;10.48;;;1.95;;
31004;SDS011;17676;52.254;4.490;2023-02-10T11:03:33;11.40;;;2.00;;
31004;SDS011;17676;52.254;4.490;2023-02-10T11:06:03;11.82;;;2.42;;
31004;SDS011;17676;52.254;4.490;2023-02-10T11:08:32;12.02;;;2.45;;
31004;SDS011;17676;52.254;4.490;2023-02-10T11:10:59;7.05;;;2.10;;
31004;SDS011;17676;52.254;4.490;2023-02-10T11:13:26;9.15;;;2.08;;
31004;SDS011;17676;52.254;4.490;2023-02-10T11:16:25;12.93;;;2.63;;
31004;SDS011;17676;52.254;4.490;2023-02-10T11:21:39;8.75;;;2.50;;
31004;SDS011;17676;52.254;4.490;2023-02-10T11:24:28;13.52;;;3.45;;
31004;SDS011;17676;52.254;4.490;2023-02-10T11:26:54;15.57;;;2.80;;
31004;SDS011;17676;52.254;4.490;2023-02-10T11:29:20;11.75;;;3.42;;
31004;SDS011;17676;52.254;4.490;2023-02-10T11:31:45;12.98;;;2.70;;
31004;SDS011;17676;52.254;4.490;2023-02-10T11:36:39;8.77;;;2.28;;
31004;SDS011;17676;52.254;4.490;2023-02-10T11:39:06;10.43;;;2.58;;
31004;SDS011;17676;52.254;4.490;2023-02-10T11:41:40;22.42;;;3.28;;
31004;SDS011;17676;52.254;4.490;2023-02-10T11:44:14;14.52;;;2.67;;
31004;SDS011;17676;52.254;4.490;2023-02-10T11:46:44;9.43;;;2.35;;
31004;SDS011;17676;52.254;4.490;2023-02-10T11:49:18;16.90;;;2.97;;
31004;SDS011;17676;52.254;4.490;2023-02-10T11:51:50;12.88;;;2.97;;
31004;SDS011;17676;52.254;4.490;2023-02-10T11:54:16;15.43;;;3.13;;
31004;SDS011;17676;52.254;4.490;2023-02-10T11:56:47;14.82;;;4.03;;
31004;SDS011;17676;52.254;4.490;2023-02-10T11:59:38;10.15;;;3.53;;
31004;SDS011;17676;52.254;4.490;2023-02-10T12:04:54;10.18;;;4.20;;
31004;SDS011;17676;52.254;4.490;2023-02-10T12:10:02;17.63;;;5.03;;
31004;SDS011;17676;52.254;4.490;2023-02-10T12:17:23;14.57;;;6.53;;
31004;SDS011;17676;52.254;4.490;2023-02-10T12:28:19;14.02;;;6.50;;
31004;SDS011;17676;52.254;4.490;2023-02-10T12:33:19;16.08;;;7.55;;
31004;SDS011;17676;52.254;4.490;2023-02-10T12:35:59;15.00;;;6.22;;
31004;SDS011;17676;52.254;4.490;2023-02-10T12:38:37;17.98;;;8.50;;
31004;SDS011;17676;52.254;4.490;2023-02-10T12:46:36;23.67;;;10.43;;
31004;SDS011;17676;52.254;4.490;2023-02-10T12:56:54;19.83;;;7.07;;
31004;SDS011;17676;52.254;4.490;2023-02-10T12:59:23;21.42;;;8.18;;
31004;SDS011;17676;52.254;4.490;2023-02-10T13:01:56;18.92;;;7.18;;
31004;SDS011;17676;52.254;4.490;2023-02-10T13:04:33;13.90;;;7.22;;
31004;SDS011;17676;52.254;4.490;2023-02-10T13:09:34;15.40;;;6.43;;
31004;SDS011;17676;52.254;4.490;2023-02-10T13:14:45;17.33;;;7.90;;
31004;SDS011;17676;52.254;4.490;2023-02-10T13:17:11;23.00;;;8.68;;
31004;SDS011;17676;52.254;4.490;2023-02-10T13:22:07;16.55;;;7.60;;
31004;SDS011;17676;52.254;4.490;2023-02-10T13:24:37;20.02;;;7.25;;
31004;SDS011;17676;52.254;4.490;2023-02-10T13:27:58;16.52;;;7.22;;
31004;SDS011;17676;52.254;4.490;2023-02-10T13:30:41;18.88;;;8.80;;
31004;SDS011;17676;52.254;4.490;2023-02-10T13:32:54;16.58;;;8.88;;
31004;SDS011;17676;52.254;4.490;2023-02-10T13:35:22;22.10;;;9.68;;
31004;SDS011;17676;52.254;4.490;2023-02-10T13:37:49;22.55;;;9.48;;
31004;SDS011;17676;52.254;4.490;2023-02-10T13:40:20;22.70;;;9.65;;
31004;SDS011;17676;52.254;4.490;2023-02-10T13:42:55;18.40;;;9.25;;
31004;SDS011;17676;52.254;4.490;2023-02-10T13:45:26;19.77;;;9.77;;
31004;SDS011;17676;52.254;4.490;2023-02-10T13:50:21;17.15;;;9.32;;
31004;SDS011;17676;52.254;4.490;2023-02-10T14:00:50;19.42;;;9.00;;
31004;SDS011;17676;52.254;4.490;2023-02-10T14:05:59;16.33;;;8.45;;
31004;SDS011;17676;52.254;4.490;2023-02-10T14:08:26;22.33;;;8.65;;
31004;SDS011;17676;52.254;4.490;2023-02-10T14:11:00;15.23;;;7.72;;
31004;SDS011;17676;52.254;4.490;2023-02-10T14:13:27;18.50;;;8.68;;
31004;SDS011;17676;52.254;4.490;2023-02-10T14:16:00;18.13;;;8.80;;
31004;SDS011;17676;52.254;4.490;2023-02-10T14:18:27;20.00;;;7.88;;
31004;SDS011;17676;52.254;4.490;2023-02-10T14:20:57;16.15;;;8.35;;
31004;SDS011;17676;52.254;4.490;2023-02-10T14:23:22;15.68;;;7.53;;
31004;SDS011;17676;52.254;4.490;2023-02-10T14:25:48;18.90;;;7.95;;
31004;SDS011;17676;52.254;4.490;2023-02-10T14:28:23;14.43;;;7.43;;
31004;SDS011;17676;52.254;4.490;2023-02-10T14:30:52;18.45;;;8.40;;
31004;SDS011;17676;52.254;4.490;2023-02-10T14:33:20;15.82;;;7.38;;
31004;SDS011;17676;52.254;4.490;2023-02-10T14:35:50;20.35;;;8.45;;
31004;SDS011;17676;52.254;4.490;2023-02-10T14:38:18;19.75;;;8.43;;
31004;SDS011;17676;52.254;4.490;2023-02-10T14:40:44;21.02;;;8.63;;
31004;SDS011;17676;52.254;4.490;2023-02-10T14:43:12;17.17;;;7.55;;
31004;SDS011;17676;52.254;4.490;2023-02-10T14:45:37;16.35;;;8.70;;
31004;SDS011;17676;52.254;4.490;2023-02-10T14:48:05;22.35;;;7.20;;
31004;SDS011;17676;52.254;4.490;2023-02-10T14:50:32;18.60;;;8.85;;
31004;SDS011;17676;52.254;4.490;2023-02-10T14:52:58;15.27;;;8.55;;
31004;SDS011;17676;52.254;4.490;2023-02-10T14:58:06;19.05;;;10.23;;
31004;SDS011;17676;52.254;4.490;2023-02-10T15:00:34;20.73;;;10.60;;
31004;SDS011;17676;52.254;4.490;2023-02-10T15:03:01;19.67;;;10.35;;
31004;SDS011;17676;52.254;4.490;2023-02-10T15:11:11;23.95;;;14.30;;
31004;SDS011;17676;52.254;4.490;2023-02-10T15:13:43;22.95;;;13.50;;
31004;SDS011;17676;52.254;4.490;2023-02-10T15:16:10;27.35;;;15.00;;
31004;SDS011;17676;52.254;4.490;2023-02-10T15:18:39;26.45;;;14.02;;
31004;SDS011;17676;52.254;4.490;2023-02-10T15:21:06;24.80;;;13.35;;
31004;SDS011;17676;52.254;4.490;2023-02-10T15:23:47;28.35;;;15.43;;
31004;SDS011;17676;52.254;4.490;2023-02-10T15:26:22;29.27;;;17.25;;
31004;SDS011;17676;52.254;4.490;2023-02-10T15:31:54;32.05;;;17.40;;
31004;SDS011;17676;52.254;4.490;2023-02-10T15:36:49;31.50;;;17.67;;
31004;SDS011;17676;52.254;4.490;2023-02-10T15:39:22;36.83;;;18.58;;
31004;SDS011;17676;52.254;4.490;2023-02-10T15:44:29;29.10;;;16.30;;
31004;SDS011;17676;52.254;4.490;2023-02-10T15:47:13;26.58;;;15.48;;
31004;SDS011;17676;52.254;4.490;2023-02-10T15:49:39;30.30;;;16.83;;
31004;SDS011;17676;52.254;4.490;2023-02-10T15:52:05;33.92;;;18.05;;
31004;SDS011;17676;52.254;4.490;2023-02-10T15:54:30;31.80;;;15.95;;
31004;SDS011;17676;52.254;4.490;2023-02-10T15:56:56;30.25;;;17.73;;
31004;SDS011;17676;52.254;4.490;2023-02-10T15:59:21;29.33;;;17.25;;
31004;SDS011;17676;52.254;4.490;2023-02-10T16:01:52;27.27;;;16.90;;
31004;SDS011;17676;52.254;4.490;2023-02-10T16:04:17;38.92;;;17.27;;
31004;SDS011;17676;52.254;4.490;2023-02-10T16:06:42;31.88;;;17.02;;
31004;SDS011;17676;52.254;4.490;2023-02-10T16:09:08;30.42;;;16.15;;
31004;SDS011;17676;52.254;4.490;2023-02-10T16:11:34;33.58;;;16.95;;
31004;SDS011;17676;52.254;4.490;2023-02-10T16:13:59;33.97;;;17.05;;
31004;SDS011;17676;52.254;4.490;2023-02-10T16:16:25;31.83;;;15.50;;
31004;SDS011;17676;52.254;4.490;2023-02-10T16:18:50;28.45;;;16.10;;
31004;SDS011;17676;52.254;4.490;2023-02-10T16:21:15;27.73;;;16.23;;
31004;SDS011;17676;52.254;4.490;2023-02-10T16:23:41;34.92;;;16.17;;
31004;SDS011;17676;52.254;4.490;2023-02-10T16:26:06;25.48;;;14.75;;
31004;SDS011;17676;52.254;4.490;2023-02-10T16:28:32;32.55;;;16.23;;
31004;SDS011;17676;52.254;4.490;2023-02-10T16:30:57;33.08;;;16.10;;
31004;SDS011;17676;52.254;4.490;2023-02-10T16:33:22;33.13;;;15.23;;
31004;SDS011;17676;52.254;4.490;2023-02-10T16:35:48;33.90;;;16.83;;
31004;SDS011;17676;52.254;4.490;2023-02-10T16:38:13;30.38;;;15.77;;
31004;SDS011;17676;52.254;4.490;2023-02-10T16:40:38;28.60;;;14.57;;
31004;SDS011;17676;52.254;4.490;2023-02-10T16:43:05;35.55;;;16.88;;